Time;durP1;ratioP1;P1;durP2;ratioP2;P2;SDS_P1;SDS_P2;PMS_P1;PMS_P2;Temp;Humidity;BMP_temperature;BMP_pressure;BME280_temperature;BME280_humidity;BME280_pressure;Samples;Min_cycle;Max_cycle;Signal;HPM_P1;HPM_P2
2023/06/05 00:01:35;;;;;;;10.88;3.80;;;13.20;1.00;;;;;;5073311;28;20040;-66
2023/06/05 00:04:01;;;;;;;6.75;3.70;;;13.10;1.00;;;;;;5073696;28;20052;-66
2023/06/05 00:06:27;;;;;;;5.85;4.03;;;13.10;1.00;;;;;;5073670;28;20036;-66
2023/06/05 00:08:52;;;;;;;8.48;4.38;;;13.10;1.00;;;;;;5073459;28;20397;-66
2023/06/05 00:11:18;;;;;;;9.73;4.13;;;13.00;1.00;;;;;;5073267;28;20078;-66
2023/06/05 00:13:43;;;;;;;7.07;4.40;;;13.00;1.00;;;;;;5073373;28;20108;-66
2023/06/05 00:16:09;;;;;;;11.82;4.63;;;12.90;1.00;;;;;;5073616;28;20074;-66
2023/06/05 00:18:35;;;;;;;6.85;4.18;;;12.90;1.00;;;;;;5073174;28;20059;-66
2023/06/05 00:21:00;;;;;;;9.00;4.72;;;12.80;1.00;;;;;;5073377;28;20078;-66
2023/06/05 00:23:26;;;;;;;8.38;4.38;;;12.80;1.00;;;;;;5073420;28;20028;-66
2023/06/05 00:25:52;;;;;;;7.95;4.35;;;12.70;1.00;;;;;;5073539;28;20071;-66
2023/06/05 00:28:17;;;;;;;7.07;4.00;;;12.60;1.00;;;;;;5073161;28;20064;-66
2023/06/05 00:30:43;;;;;;;5.68;3.97;;;12.50;1.00;;;;;;5073004;28;20102;-66
2023/06/05 00:33:09;;;;;;;6.88;4.05;;;12.40;1.00;;;;;;5072928;28;20017;-66
2023/06/05 00:35:34;;;;;;;5.53;4.18;;;12.40;1.00;;;;;;5073125;28;20034;-65
2023/06/05 00:38:00;;;;;;;6.07;4.22;;;12.30;1.00;;;;;;5073113;28;20390;-66
2023/06/05 00:40:26;;;;;;;9.40;4.55;;;12.20;1.00;;;;;;5073093;28;20036;-66
2023/06/05 00:42:51;;;;;;;8.45;4.38;;;12.20;1.00;;;;;;5073311;28;20025;-66
2023/06/05 00:45:17;;;;;;;7.68;4.10;;;12.10;1.00;;;;;;5073057;28;20024;-66
2023/06/05 00:47:43;;;;;;;8.02;4.80;;;12.10;1.00;;;;;;5073173;28;20117;-66
2023/06/05 00:50:12;;;;;;;7.93;5.00;;;12.00;1.00;;;;;;5072976;28;20470;-66
2023/06/05 00:52:39;;;;;;;7.93;4.60;;;11.90;1.00;;;;;;5072936;28;20020;-65
2023/06/05 00:55:06;;;;;;;8.10;4.75;;;11.90;1.00;;;;;;5073027;28;20108;-66
2023/06/05 00:57:34;;;;;;;8.70;4.63;;;11.90;1.00;;;;;;5072872;28;20433;-66
2023/06/05 01:00:02;;;;;;;9.85;5.05;;;11.80;1.00;;;;;;5073207;28;20028;-66
2023/06/05 01:02:28;;;;;;;8.43;4.90;;;11.80;1.00;;;;;;5072745;28;20082;-66
2023/06/05 01:04:56;;;;;;;8.98;5.13;;;11.80;4.60;;;;;;5072821;28;20017;-66
2023/06/05 01:07:22;;;;;;;9.05;5.55;;;11.70;7.30;;;;;;5072823;28;20025;-66
2023/06/05 01:09:48;;;;;;;7.93;4.65;;;11.80;12.30;;;;;;5072751;28;20039;-65
2023/06/05 01:12:36;;;;;;;11.70;5.00;;;11.70;10.20;;;;;;5072947;28;20474;-65
2023/06/05 01:15:02;;;;;;;9.23;5.40;;;11.70;10.80;;;;;;5072834;28;20036;-66
2023/06/05 01:17:30;;;;;;;8.23;5.22;;;11.60;12.30;;;;;;5072798;28;20025;-66
2023/06/05 01:19:58;;;;;;;9.10;5.97;;;11.60;14.70;;;;;;5072681;28;20025;-65
2023/06/05 01:22:25;;;;;;;8.80;5.40;;;11.60;13.80;;;;;;5072959;28;20047;-65
2023/06/05 01:24:52;;;;;;;15.07;6.35;;;11.50;14.80;;;;;;5072611;28;20112;-65
2023/06/05 01:27:25;;;;;;;10.98;6.07;;;11.40;18.50;;;;;;5072737;28;20450;-65
2023/06/05 01:30:04;;;;;;;8.57;5.35;;;11.40;21.80;;;;;;5071557;28;20063;-66
2023/06/05 01:32:53;;;;;;;10.93;5.70;;;11.30;26.10;;;;;;5072429;28;20056;-65
2023/06/05 01:35:21;;;;;;;8.60;5.25;;;11.30;30.10;;;;;;5072565;28;20031;-65
2023/06/05 01:37:49;;;;;;;8.75;5.40;;;11.20;27.70;;;;;;5072353;28;20111;-65
2023/06/05 01:40:19;;;;;;;9.85;4.95;;;11.20;25.90;;;;;;5075967;28;20032;-65
2023/06/05 01:42:47;;;;;;;12.13;5.85;;;11.10;29.10;;;;;;5076212;28;20028;-65
2023/06/05 01:45:14;;;;;;;8.65;5.53;;;11.00;34.10;;;;;;5074864;28;20021;-65
2023/06/05 01:47:40;;;;;;;9.40;5.55;;;11.00;39.90;;;;;;5076303;28;20028;-65
2023/06/05 01:50:07;;;;;;;11.38;5.25;;;10.90;44.60;;;;;;5076002;28;20040;-65
2023/06/05 01:52:34;;;;;;;8.70;5.43;;;10.80;49.50;;;;;;5075721;28;20440;-65
2023/06/05 01:55:01;;;;;;;9.98;5.50;;;10.70;55.50;;;;;;5075814;28;20113;-65
2023/06/05 01:57:28;;;;;;;7.70;4.95;;;10.70;68.50;;;;;;5074869;28;20029;-65
2023/06/05 01:59:54;;;;;;;10.07;6.30;;;10.60;74.10;;;;;;5075985;28;20033;-65
2023/06/05 02:02:21;;;;;;;12.73;5.95;;;10.60;83.30;;;;;;5075815;28;20470;-65
2023/06/05 02:04:47;;;;;;;10.90;6.15;;;10.50;90.60;;;;;;5075774;28;20024;-65
2023/06/05 02:07:14;;;;;;;10.98;6.10;;;10.50;92.00;;;;;;5075751;28;20067;-65
2023/06/05 02:09:41;;;;;;;12.13;6.25;;;10.40;92.90;;;;;;5075765;28;20521;-65
2023/06/05 02:12:07;;;;;;;12.50;6.75;;;10.40;94.70;;;;;;5075536;28;20543;-65
2023/06/05 02:14:35;;;;;;;10.05;6.43;;;10.30;97.90;;;;;;5075776;28;20466;-65
2023/06/05 02:17:04;;;;;;;9.68;6.68;;;10.30;98.60;;;;;;5075384;28;20021;-65
2023/06/05 02:19:30;;;;;;;11.38;7.72;;;10.20;99.90;;;;;;5075497;28;20485;-65
2023/06/05 02:21:56;;;;;;;11.15;7.63;;;10.20;99.90;;;;;;5075488;28;20029;-65
2023/06/05 02:24:22;;;;;;;10.15;7.32;;;10.10;99.90;;;;;;5075448;28;20440;-65
2023/06/05 02:26:48;;;;;;;10.50;7.32;;;10.10;99.90;;;;;;5075598;28;20020;-65
2023/06/05 02:29:14;;;;;;;11.57;7.15;;;10.10;99.90;;;;;;5075535;28;20082;-65
2023/06/05 02:31:39;;;;;;;14.25;8.40;;;10.00;99.90;;;;;;5074964;28;20041;-65
2023/06/05 02:34:05;;;;;;;15.82;8.13;;;10.00;99.90;;;;;;5075273;28;20482;-65
2023/06/05 02:36:32;;;;;;;15.18;9.05;;;10.00;99.90;;;;;;5075098;28;20035;-65
2023/06/05 02:38:59;;;;;;;14.93;7.82;;;10.00;99.90;;;;;;5075099;28;20021;-65
2023/06/05 02:41:26;;;;;;;12.55;8.27;;;9.90;99.90;;;;;;5075084;28;20367;-65
2023/06/05 02:43:54;;;;;;;13.30;8.13;;;9.90;99.90;;;;;;5075248;28;20391;-65
2023/06/05 02:46:21;;;;;;;12.57;8.02;;;9.90;99.90;;;;;;5074971;28;20036;-65
2023/06/05 02:48:47;;;;;;;15.55;8.45;;;9.80;99.90;;;;;;5074903;28;20056;-65
2023/06/05 02:51:13;;;;;;;14.35;7.72;;;9.80;99.90;;;;;;5075005;28;20034;-65
2023/06/05 02:53:39;;;;;;;13.07;7.95;;;9.80;99.90;;;;;;5074604;28;20100;-65
2023/06/05 02:56:05;;;;;;;14.98;7.95;;;9.70;99.90;;;;;;5074971;28;20025;-65
2023/06/05 02:58:33;;;;;;;12.50;7.85;;;9.70;99.90;;;;;;5074692;28;20025;-65
2023/06/05 03:01:03;;;;;;;12.60;8.30;;;9.60;99.90;;;;;;5074677;28;20024;-65
2023/06/05 03:03:31;;;;;;;12.85;7.93;;;9.50;99.90;;;;;;5074828;28;20077;-65
2023/06/05 03:06:06;;;;;;;16.73;8.98;;;9.50;99.90;;;;;;5074394;28;20020;-65
2023/06/05 03:08:34;;;;;;;13.45;8.75;;;9.50;99.90;;;;;;5074562;28;20031;-65
2023/06/05 03:11:01;;;;;;;14.73;9.25;;;9.50;99.90;;;;;;5073152;28;20067;-65
2023/06/05 03:13:27;;;;;;;11.65;8.05;;;9.50;99.90;;;;;;5074356;28;20028;-65
2023/06/05 03:15:56;;;;;;;17.02;9.05;;;9.50;99.90;;;;;;5074301;28;20478;-65
2023/06/05 03:18:24;;;;;;;16.08;9.38;;;9.40;99.90;;;;;;5074324;28;20027;-65
2023/06/05 03:20:54;;;;;;;16.17;9.98;;;9.40;99.90;;;;;;5057087;28;20051;-66
2023/06/05 03:23:27;;;;;;;13.23;9.13;;;9.40;99.90;;;;;;5074245;28;20432;-65
2023/06/05 03:25:53;;;;;;;17.77;10.18;;;9.40;99.90;;;;;;5073155;28;20482;-65
2023/06/05 03:28:20;;;;;;;13.63;8.68;;;9.40;99.90;;;;;;5074352;28;20078;-65
2023/06/05 03:30:46;;;;;;;14.93;9.27;;;9.40;99.90;;;;;;5073689;28;20132;-65
2023/06/05 03:33:14;;;;;;;13.23;8.98;;;9.40;99.90;;;;;;5073995;28;20104;-65
2023/06/05 03:35:42;;;;;;;13.55;8.82;;;9.40;99.90;;;;;;5072779;28;20111;-65
2023/06/05 03:38:08;;;;;;;15.52;10.25;;;9.40;99.90;;;;;;5072591;28;20496;-65
2023/06/05 03:40:34;;;;;;;18.58;10.18;;;9.50;99.90;;;;;;5074156;28;20028;-65
2023/06/05 03:43:00;;;;;;;15.88;9.35;;;9.50;99.90;;;;;;5073840;28;20050;-65
2023/06/05 03:45:27;;;;;;;15.98;9.32;;;9.60;99.90;;;;;;5072410;28;20024;-65
2023/06/05 03:47:53;;;;;;;16.20;9.60;;;9.70;99.90;;;;;;5073475;28;20031;-65
2023/06/05 03:50:20;;;;;;;16.95;10.30;;;9.70;99.90;;;;;;5073958;28;20456;-65
2023/06/05 03:52:52;;;;;;;17.75;10.15;;;9.70;99.90;;;;;;5073700;28;20032;-65
2023/06/05 03:55:20;;;;;;;18.95;9.32;;;9.80;99.90;;;;;;5073897;28;20028;-65
2023/06/05 03:57:51;;;;;;;15.27;9.10;;;9.90;99.90;;;;;;5073666;28;20027;-65
2023/06/05 04:00:17;;;;;;;16.70;10.02;;;10.00;99.90;;;;;;5072678;28;20028;-65
2023/06/05 04:02:42;;;;;;;13.57;8.55;;;10.10;99.90;;;;;;5073395;28;20074;-65
2023/06/05 04:05:11;;;;;;;14.63;8.52;;;10.20;99.90;;;;;;5073551;28;20032;-65
2023/06/05 04:07:38;;;;;;;11.75;8.63;;;10.20;99.90;;;;;;5073177;28;20021;-65
2023/06/05 04:10:04;;;;;;;12.55;8.98;;;10.20;99.90;;;;;;5072519;28;20038;-65
2023/06/05 04:12:30;;;;;;;10.25;7.75;;;10.20;99.90;;;;;;5073477;28;20074;-65
2023/06/05 04:14:55;;;;;;;17.40;8.38;;;10.30;99.90;;;;;;5073424;28;20025;-65
2023/06/05 04:17:21;;;;;;;13.05;8.60;;;10.30;99.90;;;;;;5073292;28;20386;-65
2023/06/05 04:19:47;;;;;;;15.23;9.20;;;10.40;99.90;;;;;;5073451;28;20563;-65
2023/06/05 04:22:12;;;;;;;14.70;8.30;;;10.40;99.90;;;;;;5073527;28;20548;-65
2023/06/05 04:24:39;;;;;;;12.70;7.88;;;10.50;99.90;;;;;;5073264;28;20032;-65
2023/06/05 04:27:04;;;;;;;14.35;8.00;;;10.60;99.90;;;;;;5073469;28;20031;-65
2023/06/05 04:29:32;;;;;;;13.55;8.15;;;10.80;99.90;;;;;;5073266;28;20111;-65
2023/06/05 04:32:00;;;;;;;12.65;8.50;;;11.00;99.90;;;;;;5073133;28;20049;-65
2023/06/05 04:34:26;;;;;;;12.07;7.97;;;11.20;99.00;;;;;;5073378;28;20027;-65
2023/06/05 04:36:52;;;;;;;11.57;7.70;;;11.60;99.00;;;;;;5073153;28;20028;-66
2023/06/05 04:39:18;;;;;;;12.85;7.57;;;12.60;76.00;;;;;;5073252;28;20101;-66
2023/06/05 04:41:46;;;;;;;9.70;7.07;;;13.80;1.00;;;;;;5071544;28;20032;-66
2023/06/05 04:44:13;;;;;;;11.77;6.85;;;14.40;1.00;;;;;;5073353;28;20020;-66
2023/06/05 04:46:39;;;;;;;7.25;5.88;;;15.20;99.90;;;;;;5073326;28;20031;-66
2023/06/05 04:49:10;;;;;;;9.10;5.95;;;15.60;99.90;;;;;;5073050;28;20390;-67
2023/06/05 04:51:36;;;;;;;9.38;6.28;;;16.20;1.00;;;;;;5073171;28;20033;-66
2023/06/05 04:54:02;;;;;;;8.77;6.07;;;15.80;1.00;;;;;;5073236;28;20386;-66
2023/06/05 04:56:28;;;;;;;8.98;6.30;;;15.90;1.00;;;;;;5071863;28;20427;-66
2023/06/05 04:58:54;;;;;;;9.07;6.43;;;15.70;29.60;;;;;;5073231;28;20032;-66
2023/06/05 05:01:20;;;;;;;8.82;6.25;;;16.10;1.00;;;;;;5072745;28;20429;-66
2023/06/05 05:03:46;;;;;;;7.70;5.72;;;16.60;99.90;;;;;;5072965;28;20075;-66
2023/06/05 05:06:16;;;;;;;7.57;5.25;;;17.10;99.90;;;;;;5073177;28;20039;-66
2023/06/05 05:08:44;;;;;;;8.88;5.95;;;16.90;99.90;;;;;;5073082;28;20055;-66
2023/06/05 05:11:11;;;;;;;7.53;5.53;;;17.00;33.00;;;;;;5072756;28;20037;-66
2023/06/05 05:13:37;;;;;;;6.93;5.53;;;16.80;14.60;;;;;;5073501;28;20027;-66
2023/06/05 05:16:03;;;;;;;9.25;6.10;;;16.70;99.90;;;;;;5075717;28;20039;-66
2023/06/05 05:18:29;;;;;;;6.40;5.22;;;16.60;12.00;;;;;;5076865;28;20032;-66
2023/06/05 05:20:55;;;;;;;7.47;5.70;;;17.00;1.00;;;;;;5076782;28;20035;-67
2023/06/05 05:23:21;;;;;;;7.10;5.72;;;17.30;29.00;;;;;;5076322;28;20025;-66
2023/06/05 05:25:47;;;;;;;7.57;5.75;;;17.40;83.40;;;;;;5076727;28;20382;-66
2023/06/05 05:28:13;;;;;;;9.18;5.70;;;18.10;99.90;;;;;;5076176;28;20394;-67
2023/06/05 05:30:39;;;;;;;9.98;5.88;;;18.70;1.00;;;;;;5076347;28;20063;-67
2023/06/05 05:33:05;;;;;;;8.35;5.40;;;18.70;99.90;;;;;;5076204;28;20064;-67
2023/06/05 05:35:31;;;;;;;8.88;5.05;;;19.70;99.90;;;;;;5076196;28;20023;-67
2023/06/05 05:37:57;;;;;;;7.00;5.53;;;19.70;1.00;;;;;;5075874;28;20490;-67
2023/06/05 05:40:22;;;;;;;9.70;5.82;;;19.70;99.90;;;;;;5075012;28;20030;-67
2023/06/05 05:42:48;;;;;;;10.88;6.40;;;20.70;99.90;;;;;;5076300;28;20032;-67
2023/06/05 05:45:14;;;;;;;10.63;5.25;;;20.50;99.90;;;;;;5076214;28;20086;-66
2023/06/05 05:47:40;;;;;;;8.25;5.43;;;19.60;99.90;;;;;;5075036;28;20078;-67
2023/06/05 05:50:06;;;;;;;7.28;5.72;;;19.40;99.90;;;;;;5076140;28;20029;-67
2023/06/05 05:52:32;;;;;;;7.78;6.15;;;19.60;99.90;;;;;;5075908;28;20032;-67
2023/06/05 05:54:59;;;;;;;9.88;6.32;;;19.80;99.90;;;;;;5075940;28;20016;-67
2023/06/05 05:57:25;;;;;;;6.70;5.57;;;21.20;99.90;;;;;;5074874;28;20028;-67
2023/06/05 05:59:51;;;;;;;6.93;5.20;;;20.70;99.90;;;;;;5075606;28;20428;-67
2023/06/05 06:02:17;;;;;;;6.85;5.43;;;21.90;99.90;;;;;;5075845;28;20485;-67
2023/06/05 06:04:45;;;;;;;9.23;6.30;;;20.90;18.20;;;;;;5075467;28;20027;-67
2023/06/05 06:07:11;;;;;;;7.05;6.10;;;20.40;66.10;;;;;;5070847;28;20383;-67
2023/06/05 06:09:36;;;;;;;12.02;5.95;;;20.10;99.90;;;;;;5069412;28;20035;-67
2023/06/05 06:12:05;;;;;;;7.75;6.13;;;20.30;99.90;;;;;;5075409;28;20444;-66
2023/06/05 06:14:32;;;;;;;10.20;5.70;;;21.10;40.50;;;;;;5074802;28;20389;-65
2023/06/05 06:16:58;;;;;;;8.23;5.90;;;21.30;37.70;;;;;;5072766;28;20029;-67
2023/06/05 06:19:25;;;;;;;8.73;5.95;;;21.90;12.70;;;;;;5070598;28;20088;-66
2023/06/05 06:21:52;;;;;;;9.43;6.78;;;22.10;1.00;;;;;;5072406;28;20044;-65
2023/06/05 06:24:20;;;;;;;10.20;6.97;;;23.20;1.00;;;;;;5068443;28;20086;-66
2023/06/05 06:26:46;;;;;;;7.97;5.90;;;23.50;1.00;;;;;;5069811;28;20071;-66
2023/06/05 06:29:15;;;;;;;7.63;6.25;;;24.10;1.00;;;;;;5068512;28;20035;-66
2023/06/05 06:31:42;;;;;;;11.65;6.57;;;23.80;1.00;;;;;;5071106;28;20045;-66
2023/06/05 06:34:09;;;;;;;10.45;5.65;;;23.30;1.00;;;;;;5056831;28;20029;-67
2023/06/05 06:36:40;;;;;;;11.15;5.78;;;22.60;1.00;;;;;;5063748;28;20103;-67
2023/06/05 06:39:07;;;;;;;10.75;5.75;;;22.50;1.00;;;;;;5071918;28;20086;-65
2023/06/05 06:41:34;;;;;;;10.13;6.75;;;22.80;1.00;;;;;;5068515;28;20040;-64
2023/06/05 06:44:01;;;;;;;10.75;5.95;;;22.10;1.00;;;;;;5070753;28;20447;-64
2023/06/05 06:46:26;;;;;;;9.90;5.57;;;22.60;1.00;;;;;;5070629;28;20375;-64
2023/06/05 06:48:52;;;;;;;8.07;6.05;;;23.60;1.00;;;;;;5070403;28;20116;-65
2023/06/05 06:51:18;;;;;;;11.43;6.13;;;24.90;1.00;;;;;;5063257;28;20071;-65
2023/06/05 06:53:44;;;;;;;7.97;5.78;;;24.80;1.00;;;;;;5064477;28;20039;-66
2023/06/05 06:56:10;;;;;;;9.98;5.70;;;25.20;1.00;;;;;;5059102;28;20118;-66
2023/06/05 06:58:36;;;;;;;16.73;6.40;;;25.00;24.10;;;;;;5056965;28;20044;-66
2023/06/05 07:01:03;;;;;;;11.55;5.50;;;25.00;96.30;;;;;;5062140;28;20111;-65
2023/06/05 07:03:29;;;;;;;10.30;5.70;;;26.30;28.30;;;;;;5061956;28;20397;-65
2023/06/05 07:05:54;;;;;;;13.30;6.15;;;25.30;77.40;;;;;;5060112;28;20035;-65
2023/06/05 07:08:20;;;;;;;15.43;5.80;;;24.90;63.20;;;;;;5055819;28;20033;-65
2023/06/05 07:10:45;;;;;;;12.77;5.95;;;26.10;32.80;;;;;;5055435;28;20029;-66
2023/06/05 07:13:12;;;;;;;8.70;5.90;;;25.70;9.70;;;;;;5056347;28;20037;-66
2023/06/05 07:15:37;;;;;;;9.75;5.90;;;25.70;1.00;;;;;;5055917;28;20513;-66
2023/06/05 07:18:03;;;;;;;8.00;6.50;;;24.40;1.00;;;;;;5055705;28;20039;-66
2023/06/05 07:20:29;;;;;;;11.82;5.80;;;24.00;1.00;;;;;;5054823;28;20033;-66
2023/06/05 07:22:54;;;;;;;12.90;6.70;;;24.50;1.00;;;;;;5055550;28;20048;-66
2023/06/05 07:25:22;;;;;;;12.90;6.32;;;24.80;1.00;;;;;;5060767;28;20048;-65
2023/06/05 07:27:48;;;;;;;14.82;6.40;;;24.30;1.00;;;;;;5058619;28;20044;-65
2023/06/05 07:30:14;;;;;;;8.30;6.03;;;24.50;1.00;;;;;;5057168;28;20091;-67
2023/06/05 07:32:42;;;;;;;10.85;6.30;;;25.00;1.00;;;;;;5056970;28;20079;-68
2023/06/05 07:35:09;;;;;;;12.65;5.95;;;25.20;1.00;;;;;;5061879;28;20017;-69
2023/06/05 07:37:35;;;;;;;9.27;6.07;;;25.30;1.00;;;;;;5068638;28;20032;-68
2023/06/05 07:40:01;;;;;;;10.02;5.75;;;25.90;1.00;;;;;;5051917;28;20654;-68
2023/06/05 07:42:27;;;;;;;9.05;5.63;;;25.70;1.00;;;;;;5054891;28;20486;-68
2023/06/05 07:44:52;;;;;;;8.18;5.63;;;25.70;1.00;;;;;;5052089;28;20036;-69
2023/06/05 07:47:18;;;;;;;12.93;6.78;;;25.60;1.00;;;;;;5054927;28;20562;-68
2023/06/05 07:49:43;;;;;;;8.90;6.03;;;25.50;1.00;;;;;;5055291;28;20451;-67
2023/06/05 07:52:09;;;;;;;12.35;5.82;;;27.00;1.00;;;;;;5056085;28;20028;-68
2023/06/05 07:54:35;;;;;;;10.77;5.75;;;26.40;1.00;;;;;;5058256;28;20048;-68
2023/06/05 07:57:01;;;;;;;10.38;6.10;;;26.60;1.00;;;;;;5057215;28;20064;-67
2023/06/05 07:59:27;;;;;;;8.98;5.90;;;26.90;1.00;;;;;;5054341;28;20128;-69
2023/06/05 08:01:55;;;;;;;8.38;6.20;;;25.90;1.00;;;;;;5055141;28;20186;-68
2023/06/05 08:04:24;;;;;;;14.07;6.50;;;25.90;1.00;;;;;;5056946;28;20031;-69
2023/06/05 08:06:51;;;;;;;9.73;6.13;;;25.80;1.00;;;;;;5070376;28;20021;-69
2023/06/05 08:09:16;;;;;;;9.57;6.45;;;26.40;1.00;;;;;;5066855;28;20453;-68
2023/06/05 08:11:42;;;;;;;8.15;5.72;;;26.10;1.00;;;;;;5074150;28;20119;-68
2023/06/05 08:14:08;;;;;;;12.63;6.30;;;25.60;1.00;;;;;;5072277;28;20063;-68
2023/06/05 08:16:34;;;;;;;10.40;5.80;;;25.60;1.00;;;;;;5069557;28;20029;-68
2023/06/05 08:19:01;;;;;;;14.88;6.35;;;25.70;1.00;;;;;;5066489;28;20033;-68
2023/06/05 08:21:26;;;;;;;12.25;6.30;;;25.40;1.00;;;;;;5072037;28;20050;-68
2023/06/05 08:23:52;;;;;;;12.15;6.60;;;25.10;1.00;;;;;;5077060;28;20041;-69
2023/06/05 08:26:19;;;;;;;11.18;6.32;;;25.90;1.00;;;;;;5066972;28;20090;-69
2023/06/05 08:28:45;;;;;;;8.98;6.63;;;26.80;1.00;;;;;;5067638;28;20401;-68
2023/06/05 08:31:11;;;;;;;7.55;6.28;;;26.40;1.00;;;;;;5062253;28;20041;-69
2023/06/05 08:33:38;;;;;;;8.18;5.50;;;26.40;1.00;;;;;;5070358;28;20028;-69
2023/06/05 08:36:05;;;;;;;9.80;6.15;;;27.50;1.00;;;;;;5073355;28;20040;-68
2023/06/05 08:38:31;;;;;;;11.63;5.75;;;27.80;1.00;;;;;;5065092;28;20498;-68
2023/06/05 08:41:01;;;;;;;12.00;7.07;;;27.30;1.00;;;;;;5069043;28;20466;-65
2023/06/05 08:43:28;;;;;;;8.20;5.70;;;26.80;1.00;;;;;;5069235;28;20062;-64
2023/06/05 08:45:57;;;;;;;9.02;6.47;;;27.30;1.00;;;;;;5060656;28;20036;-68
2023/06/05 08:48:25;;;;;;;9.77;6.90;;;27.50;1.00;;;;;;5068489;28;20029;-68
2023/06/05 08:50:51;;;;;;;10.88;6.53;;;27.00;1.00;;;;;;5070108;28;20443;-69
2023/06/05 08:53:19;;;;;;;12.88;7.40;;;27.70;1.00;;;;;;5056702;28;20033;-69
2023/06/05 08:55:46;;;;;;;11.15;6.60;;;27.80;99.90;;;;;;5075037;28;20028;-69
2023/06/05 08:58:13;;;;;;;18.10;7.95;;;27.80;99.90;;;;;;5069701;28;20059;-68
2023/06/05 09:00:40;;;;;;;15.77;6.97;;;27.90;1.00;;;;;;5069395;28;20046;-68
2023/06/05 09:03:05;;;;;;;11.05;7.50;;;27.70;99.90;;;;;;5062558;28;20025;-69
2023/06/05 09:05:31;;;;;;;18.73;8.05;;;27.50;99.90;;;;;;5064015;28;20048;-68
2023/06/05 09:07:58;;;;;;;10.75;6.60;;;27.20;99.90;;;;;;5071245;28;20040;-69
2023/06/05 09:10:27;;;;;;;6.75;5.88;;;27.60;99.90;;;;;;5072922;28;20402;-69
2023/06/05 09:12:56;;;;;;;10.50;7.53;;;27.40;99.90;;;;;;5076811;28;20031;-69
2023/06/05 09:15:24;;;;;;;10.13;5.90;;;27.90;99.90;;;;;;5076510;28;20028;-68
2023/06/05 09:18:17;;;;;;;24.02;6.50;;;28.00;99.90;;;;;;5076413;28;20102;-69
2023/06/05 09:20:45;;;;;;;13.25;6.13;;;27.70;99.90;;;;;;5073561;28;20466;-69
2023/06/05 09:23:28;;;;;;;6.90;5.28;;;27.80;99.90;;;;;;5074258;28;20474;-69
2023/06/05 09:25:57;;;;;;;9.00;5.40;;;27.50;99.90;;;;;;5074476;28;20493;-69
2023/06/05 09:28:26;;;;;;;10.18;5.80;;;27.40;99.90;;;;;;5069362;28;20518;-69
2023/06/05 09:30:56;;;;;;;8.50;5.88;;;27.60;99.90;;;;;;5069400;28;20064;-69
2023/06/05 09:33:23;;;;;;;7.85;5.40;;;27.10;99.90;;;;;;5074796;28;20025;-69
2023/06/05 09:36:03;;;;;;;9.27;5.55;;;28.00;99.90;;;;;;5071888;28;20024;-69
2023/06/05 09:38:30;;;;;;;8.20;5.32;;;28.10;99.90;;;;;;5070976;28;20029;-69
2023/06/05 09:41:15;;;;;;;10.77;5.18;;;28.90;99.90;;;;;;5070523;28;20109;-69
2023/06/05 09:43:41;;;;;;;9.27;5.13;;;28.00;99.90;;;;;;5074790;28;20036;-69
2023/06/05 09:46:08;;;;;;;9.75;5.10;;;27.30;99.90;;;;;;5073162;28;20036;-71
2023/06/05 09:48:35;;;;;;;9.52;5.43;;;27.70;1.00;;;;;;5075496;28;20033;-70
2023/06/05 09:51:17;;;;;;;7.05;4.90;;;27.00;99.90;;;;;;5073443;28;20355;-70
2023/06/05 09:53:45;;;;;;;7.20;5.18;;;27.80;1.00;;;;;;5073909;28;20097;-70
2023/06/05 09:56:14;;;;;;;8.10;5.10;;;28.40;99.90;;;;;;5075022;28;20021;-70
2023/06/05 09:58:46;;;;;;;6.55;5.18;;;28.70;1.00;;;;;;5075274;28;20029;-70
2023/06/05 10:01:16;;;;;;;8.02;4.70;;;28.50;99.90;;;;;;5073179;28;20032;-70
2023/06/05 10:03:47;;;;;;;7.65;4.70;;;28.80;1.00;;;;;;5072080;28;20039;-70
2023/06/05 10:06:13;;;;;;;6.78;4.03;;;28.90;99.90;;;;;;5071192;28;20477;-70
2023/06/05 10:08:40;;;;;;;11.38;7.28;;;29.00;1.00;;;;;;5068738;28;20033;-71
2023/06/05 10:11:07;;;;;;;7.53;4.05;;;28.70;1.00;;;;;;5074199;28;20496;-71
2023/06/05 10:13:33;;;;;;;8.02;4.60;;;28.90;99.90;;;;;;5072739;28;20020;-68
2023/06/05 10:16:00;;;;;;;7.78;3.92;;;27.80;1.00;;;;;;5069280;28;20158;-68
2023/06/05 10:18:25;;;;;;;8.77;3.75;;;28.00;1.00;;;;;;5062039;28;20025;-69
2023/06/05 10:20:53;;;;;;;5.97;3.47;;;28.90;99.90;;;;;;5072186;28;20535;-70
2023/06/05 10:23:21;;;;;;;4.78;3.92;;;28.60;99.90;;;;;;5071280;28;20047;-69
2023/06/05 10:25:48;;;;;;;4.85;3.45;;;28.00;99.90;;;;;;5069268;28;20106;-68
2023/06/05 10:28:37;;;;;;;6.13;3.92;;;27.90;39.20;;;;;;5055169;28;20483;-69
2023/06/05 10:31:13;;;;;;;8.85;4.18;;;28.30;1.00;;;;;;5066939;28;20398;-70
2023/06/05 10:36:41;;;;;;;5.97;3.22;;;29.00;1.00;;;;;;5107227;27;20357;-69
2023/06/05 10:39:10;;;;;;;5.57;3.60;;;29.20;1.00;;;;;;5083439;28;20024;-70
2023/06/05 10:41:36;;;;;;;6.38;3.78;;;28.10;99.90;;;;;;5070039;28;20060;-69
2023/06/05 10:44:02;;;;;;;6.95;3.72;;;29.00;96.20;;;;;;5066171;28;20056;-69
2023/06/05 10:46:31;;;;;;;5.85;3.35;;;27.20;24.40;;;;;;5073571;28;20029;-70
2023/06/05 10:49:19;;;;;;;6.60;3.63;;;27.00;99.90;;;;;;5071181;28;20021;-70
2023/06/05 10:51:48;;;;;;;9.48;4.88;;;27.10;1.80;;;;;;5065901;28;20035;-71
2023/06/05 10:56:59;;;;;;;8.90;4.50;;;26.90;99.90;;;;;;5087888;28;20397;-69
2023/06/05 10:59:28;;;;;;;10.40;4.40;;;26.60;79.00;;;;;;5081159;28;20021;-70
2023/06/05 11:05:04;;;;;;;9.70;5.38;;;27.10;99.90;;;;;;5098072;27;20849;-70
2023/06/05 11:07:30;;;;;;;6.95;4.03;;;26.90;99.90;;;;;;5090220;28;20536;-68
2023/06/05 11:15:36;;;;;;;6.72;3.50;;;27.00;99.90;;;;;;5084364;27;20347;-68
2023/06/05 11:18:29;;;;;;;16.05;6.45;;;26.70;99.90;;;;;;5088683;28;20396;-70
2023/06/05 11:20:56;;;;;;;13.55;5.05;;;26.50;53.80;;;;;;5093140;28;20059;-70
2023/06/05 11:23:27;;;;;;;16.35;6.45;;;26.60;99.90;;;;;;5086866;28;20072;-70
2023/06/05 11:25:58;;;;;;;8.10;3.97;;;27.10;1.00;;;;;;5086444;28;20482;-70
2023/06/05 11:28:43;;;;;;;15.63;6.85;;;26.20;57.40;;;;;;5084884;28;20052;-70
2023/06/05 11:31:10;;;;;;;18.98;6.90;;;26.80;1.00;;;;;;5085313;28;20051;-69
2023/06/05 11:33:36;;;;;;;10.70;4.18;;;26.60;99.90;;;;;;5088009;28;21618;-71
2023/06/05 11:36:05;;;;;;;13.75;5.97;;;26.70;1.00;;;;;;5085402;28;20044;-70
2023/06/05 11:38:31;;;;;;;20.38;6.38;;;26.70;99.90;;;;;;5080234;28;20043;-70
2023/06/05 11:40:57;;;;;;;7.03;4.20;;;26.90;99.90;;;;;;5079784;28;20032;-70
2023/06/05 11:43:23;;;;;;;7.90;3.70;;;26.90;99.90;;;;;;5076652;28;20424;-69
2023/06/05 11:45:51;;;;;;;13.15;3.90;;;26.80;99.90;;;;;;5080959;28;20400;-70
2023/06/05 11:48:17;;;;;;;7.07;3.70;;;26.90;99.90;;;;;;5084501;28;20055;-70
2023/06/05 11:51:03;;;;;;;5.75;3.65;;;26.50;64.00;;;;;;5085411;28;20075;-69
2023/06/05 11:53:30;;;;;;;3.72;3.08;;;27.00;99.90;;;;;;5083050;28;20567;-70
2023/06/05 11:58:35;;;;;;;5.43;3.35;;;26.60;99.90;;;;;;5087918;28;20028;-69
2023/06/05 12:01:17;;;;;;;4.97;3.38;;;26.10;99.90;;;;;;5074169;28;20020;-69
2023/06/05 12:03:44;;;;;;;5.40;3.80;;;25.90;99.90;;;;;;5068204;28;20041;-69
2023/06/05 12:06:13;;;;;;;5.45;3.30;;;26.40;99.90;;;;;;5067353;28;20067;-68
2023/06/05 12:08:39;;;;;;;5.47;3.10;;;26.50;99.90;;;;;;5067685;28;20086;-69
2023/06/05 12:11:25;;;;;;;4.38;3.33;;;26.60;77.20;;;;;;5056185;28;20025;-69
2023/06/05 12:13:52;;;;;;;13.18;4.50;;;26.30;79.10;;;;;;5063769;28;20048;-68
2023/06/05 12:16:20;;;;;;;10.55;4.03;;;26.20;34.50;;;;;;5065121;28;20035;-68
2023/06/05 12:18:48;;;;;;;6.03;2.95;;;26.20;1.00;;;;;;5070378;28;20028;-68
2023/06/05 12:21:22;;;;;;;6.32;3.53;;;26.30;37.10;;;;;;5058205;28;20033;-69
2023/06/05 12:23:48;;;;;;;14.05;4.20;;;26.70;54.70;;;;;;5059691;28;20044;-68
2023/06/05 12:26:15;;;;;;;5.50;3.65;;;26.80;69.10;;;;;;5049520;28;20036;-68
2023/06/05 12:28:42;;;;;;;4.00;2.88;;;26.50;32.80;;;;;;5051534;28;20107;-69
2023/06/05 12:31:07;;;;;;;449.50;51.65;;;26.50;1.00;;;;;;5048741;28;20029;-68
2023/06/05 12:33:48;;;;;;;40.35;6.63;;;26.70;99.90;;;;;;5057888;28;20052;-68
2023/06/05 12:36:13;;;;;;;6.90;3.22;;;26.20;1.00;;;;;;5050435;28;20029;-68
2023/06/05 12:38:41;;;;;;;5.72;3.20;;;26.10;99.90;;;;;;5055061;28;20037;-68
2023/06/05 12:41:07;;;;;;;6.32;3.38;;;26.20;99.90;;;;;;5051229;28;20090;-68
2023/06/05 12:43:34;;;;;;;10.20;4.10;;;26.50;1.00;;;;;;5045525;28;20029;-68
2023/06/05 12:46:00;;;;;;;5.93;3.45;;;26.60;95.00;;;;;;5051807;28;20376;-68
2023/06/05 12:48:26;;;;;;;8.05;3.38;;;26.60;99.90;;;;;;5053722;28;20363;-68
2023/06/05 12:50:51;;;;;;;5.65;3.33;;;26.50;99.90;;;;;;5054758;28;20166;-68
2023/06/05 12:53:18;;;;;;;6.65;3.30;;;26.20;99.90;;;;;;5054746;28;20478;-68
2023/06/05 12:55:43;;;;;;;15.90;4.15;;;26.20;54.50;;;;;;5054019;28;20111;-70
2023/06/05 12:58:09;;;;;;;5.28;3.55;;;26.50;99.90;;;;;;5053394;28;20028;-69
2023/06/05 13:00:36;;;;;;;13.85;3.88;;;26.40;86.60;;;;;;5055008;28;20035;-70
2023/06/05 13:03:03;;;;;;;10.73;4.07;;;26.20;99.90;;;;;;5052764;28;20467;-67
2023/06/05 13:05:29;;;;;;;9.30;3.85;;;26.60;99.90;;;;;;5055234;28;20030;-68